Date,TemperatureHighF,TemperatureAvgF,TemperatureLowF,DewpointHighF,DewpointAvgF,DewpointLowF,HumidityHigh,HumidityAvg,HumidityLow,PressureMaxIn,PressureMinIn,WindSpeedMaxMPH,WindSpeedAvgMPH,GustSpeedMaxMPH,PrecipitationSumIn
2013-2-1,79.0,61.5,48.0,46.0,36.8,24.0,77,47,14,0.00,40.00,5,2,10,0.00
2013-2-2,79.0,65.5,53.0,45.0,35.0,24.0,65,37,14,0.00,40.00,8,3,13,0.00
2013-2-3,79.0,67.6,60.0,49.0,39.4,29.0,63,38,22,0.00,40.00,10,5,16,0.00
2013-2-4,79.0,64.5,52.0,47.0,39.3,28.0,77,46,16,0.00,40.00,9,2,17,0.00
2013-2-5,82.0,63.8,49.0,46.0,36.7,22.0,83,43,11,0.00,40.00,6,2,8,0.00
2013-2-6,79.0,65.0,55.0,48.0,40.5,32.0,68,45,19,0.00,40.00,5,2,9,0.00
2013-2-7,78.0,60.3,47.0,52.0,42.5,26.0,99,59,17,0.00,40.00,8,2,12,0.00
2013-2-8,66.0,57.7,51.0,48.0,34.5,23.0,71,44,22,0.00,40.00,18,12,35,0.00
2013-2-9,64.0,52.9,44.0,36.0,30.1,23.0,63,44,23,0.00,40.00,14,7,26,0.00
2013-2-10,63.0,53.2,37.0,37.0,30.1,22.0,73,44,23,0.00,40.00,9,4,16,0.00
2013-2-11,62.0,51.6,39.0,36.0,26.0,14.0,79,43,15,0.00,40.00,13,5,23,0.00
2013-2-12,65.0,49.2,37.0,26.0,12.2,0.0,47,27,8,0.00,40.00,11,4,22,0.00
2013-2-13,72.0,54.5,39.0,28.0,16.1,4.0,44,25,11,0.00,40.00,10,3,21,0.00
2013-2-14,77.0,59.9,46.0,35.0,22.8,16.0,52,27,11,0.00,40.00,13,3,24,0.00
2013-2-15,77.0,66.7,59.0,22.0,17.3,13.0,21,15,9,0.00,40.00,16,8,28,0.00
2013-2-16,82.0,66.9,55.0,24.0,14.2,6.0,25,14,6,0.00,40.00,9,4,18,0.00
2013-2-17,81.0,61.8,42.0,38.0,21.5,10.0,48,24,9,0.00,40.00,9,3,16,0.00
2013-2-18,76.0,57.8,41.0,41.0,31.1,18.0,69,41,15,0.00,40.00,4,1,9,0.00
2013-2-19,68.0,56.5,43.0,44.0,35.7,29.0,92,49,27,0.00,40.00,17,7,25,0.00
2013-2-20,62.0,54.2,46.0,44.0,30.5,18.0,81,43,19,0.00,40.00,17,9,33,0.01
2013-2-21,68.0,53.4,37.0,44.0,31.6,25.0,83,48,22,0.00,40.00,8,3,14,0.01
2013-2-22,70.0,54.2,38.0,43.0,27.1,9.0,92,47,10,0.00,40.00,7,2,15,0.00
2013-2-23,73.0,55.3,39.0,36.0,23.6,14.0,65,34,13,0.00,40.00,10,4,16,0.00
2013-2-24,67.0,57.4,51.0,36.0,5.7,-3.0,50,14,6,0.00,40.00,21,11,39,0.00
2013-2-25,72.0,55.8,41.0,18.0,8.3,0.0,28,17,7,0.00,40.00,10,3,16,0.00
2013-2-26,73.0,54.3,39.0,20.0,11.3,4.0,47,22,7,0.00,40.00,15,4,26,0.00
2013-2-27,71.0,59.4,50.0,11.0,1.6,-9.0,17,10,4,0.00,40.00,15,9,26,0.00
2013-2-28,77.0,62.4,52.0,18.0,2.6,-7.0,19,10,5,0.00,40.00,15,6,24,0.00